Allandale, Florida
Current Conditions -  °F | °C
As of 8:53 AM on Wednesday 28 Jan 2015 (Local Time) from KDAB Reporting Station
Few Clouds Few Clouds  
Wind Chill: 39°   Ceiling: Unl
Heat Index: 45°   Visibility: 10mi
Dew Point: 34°   Wind: 12mph
Humidity: 65%   Direction: 320°NW
Pressure: 30.2"   Gusts: NA
Location:  29.1486°N, 81.0301°W
Report Text: KDAB 281353Z 32010KT 10SM FEW040 07/01 A3020 RMK AO2 SLP226 T00720011
Loading
Personal Weather Stations






























Interactive Weather Map New forecast layout! Learn more

10-Day Weather Forecast

Advertisements
Track Severe Weather on mobile